Weston, CO (81091)

8:50 AM MDT on September 22, 2014 (GMT -0600)
NonFedAWOS TRINCHERA CO US SUPERAWOS | Change Station
CLOSE
Current Station
Personal Weather Station
Location: Weston, CO
Elevation: 8229 ft
Nearby Weather Stations

Elev 8229 ft 37.07 °N, 105.02 °W | Updated 55 minutes ago

Overcast
Overcast
54 °F
Feels Like 54 °F
N
0
Wind Variable Wind from North
Gusts 0.0 mph

Today
High -- | Low -- °F
--% Chance of Precip.
Yesterday
High -- | Low -- °F
Precip. -- in
6:47 AM 6:56 PM
Waning Crescent, 3% visible
Pressure 30.10 in
Visibility 10.0 miles
Clouds Few 11000 ft
Dew Point 52 °F
Humidity 94%
Rainfall -999.00 in
Snow Depth 0 in , 187 in , 0 in
UV 1 out of 12
Pollen 5.40 out of 12
Air Quality Not available.
Flu Activity Not available.
METAR KTAD 221354Z AUTO 22006KT 10SM FEW110 18/12 A3029 RMK AO2 SLP191 T01780122

More Conditions Fewer Conditions

Pressure 30.10 in
Visibility 10.0 miles
Clouds Few 11000 ft
Dew Point 52 °F
Humidity 94%
Rainfall -999.00 in
Snow Depth 0 in , 187 in , 0 in
UV 1 out of 12
Pollen 5.40 out of 12
Air Quality Not available.
Flu Activity Not available.
METAR KTAD 221354Z AUTO 22006KT 10SM FEW110 18/12 A3029 RMK AO2 SLP191 T01780122

More Conditions Fewer Conditions

10-Day Weather Forecast

Almanac

Astronomy

Sep. 22, 2014 Rise Set
Actual Time 6:47 AM MDT 6:56 PM MDT
Civil Twilight 6:21 AM MDT 7:22 PM MDT
Nautical Twilight 5:51 AM MDT 7:52 PM MDT
Astronomical Twilight 5:20 AM MDT 8:23 PM MDT
Moon 5:19 AM MDT 6:04 PM MDT
Length of Visible Light 13h 00m
Length of Day
12h 08m
Tomorrow will be 2m 21s shorter.
Waning Crescent, 3% of the Moon is Illuminated
Today
Waning Crescent
Sep 24
New
Oct 1
First Quarter
Oct 8
Full
Oct 15
Last Quarter

Today's Extremes

State Highs State Lows

Community

WunderPhotos

Upload Photos

1,755,459 photos uploaded!

WunderBlogs® & News

Nearby

Snow Depth

Station Depth Elevation
Medano Pass 0 in 9620 ft
Independence Pass 187 in 10600 ft
Copeland Lake 0 in 8600 ft
Schofield Pass 0 in 10700 ft
Mesa Lakes 0 in 10000 ft

Earthquake Activity

City Distance Mag. Time & Date
No recent earthquake activity has been reported nearby.
Minimum magnitude displayed is 2.5.

Coastal Water Temperatures

Place Temperature
No Stations Reporting

Nearby Weather Stations